< < Back
Terminal Aerodrome Forecast


Current Version              Previous Versions:   1  2  3  4  5  6  7  8  9  

Terminal Aerodrome Forecast

246
FTAK31 PAJN 290800 AAA
TAFAGS
TAF AMD
PAGS 290803Z 2908/3006 30005KT P6SM -RA SCT005 BKN040 OVC080
      TEMPO 2908/2912 BKN004
     FM291200 00000KT P6SM -RA SCT025 OVC050
     FM291800 VRB03KT P6SM -RA SCT010 BKN015 OVC025
     FM292100 14006KT P6SM -RA BKN015 OVC030
     FM300300 VRB04KT P6SM -RA OVC050
      AMD NOT SKED=

Latest METAR

402
SAUS70 KWBC 291256
MTRAGS
METAR KAGS 291253Z 02007KT 10SM CLR 23/16 A2994 RMK AO2 SLP137
T02330161


USA.gov is the U.S. government's official web portal to all federal, state and local government web resources and services.